createdAt,value
2018-05-27T00:00:12.204Z,9.60
2018-05-27T00:02:08.185Z,9.30
2018-05-27T00:03:08.650Z,9.00
2018-05-27T00:05:04.112Z,8.70
2018-05-27T00:06:04.620Z,9.10
2018-05-27T00:08:03.065Z,8.90
2018-05-27T00:09:03.056Z,9.60
2018-05-27T00:10:58.951Z,9.10
2018-05-27T00:11:57.992Z,9.10
2018-05-27T00:13:54.473Z,8.90
2018-05-27T00:14:53.950Z,9.20
2018-05-27T00:16:50.435Z,9.50
2018-05-27T00:17:49.905Z,10.10
2018-05-27T00:19:46.372Z,9.00
2018-05-27T00:20:45.852Z,9.60
2018-05-27T00:22:42.826Z,9.70
2018-05-27T00:23:41.815Z,9.50
2018-05-27T00:25:39.282Z,8.70
2018-05-27T00:26:37.766Z,8.70
2018-05-27T00:28:33.750Z,9.70
2018-05-27T00:29:34.735Z,8.90
2018-05-27T00:31:29.662Z,8.80
2018-05-27T00:32:30.193Z,8.60
2018-05-27T00:34:25.605Z,9.00
2018-05-27T00:35:25.636Z,11.20
2018-05-27T00:37:22.090Z,9.90
2018-05-27T00:38:22.069Z,9.30
2018-05-27T00:40:16.030Z,8.50
2018-05-27T00:41:16.005Z,9.30
2018-05-27T00:43:11.975Z,9.00
2018-05-27T00:44:11.974Z,9.20
2018-05-27T00:46:08.457Z,8.90
2018-05-27T00:47:07.946Z,8.80
2018-05-27T00:49:05.415Z,8.70
2018-05-27T00:50:03.899Z,8.80
2018-05-27T00:51:59.891Z,8.80
2018-05-27T00:52:59.844Z,8.70
2018-05-27T00:54:56.813Z,8.50
2018-05-27T00:55:55.829Z,9.30
2018-05-27T00:57:52.309Z,8.90
2018-05-27T00:58:51.784Z,8.90
2018-05-27T01:00:47.767Z,9.30
2018-05-27T01:01:47.706Z,8.80
2018-05-27T01:03:43.669Z,9.20
2018-05-27T01:04:43.667Z,9.50
2018-05-27T01:06:39.640Z,8.50
2018-05-27T01:07:39.626Z,9.50
2018-05-27T01:09:35.571Z,9.50
2018-05-27T01:10:35.593Z,9.10
2018-05-27T01:12:31.557Z,8.70
2018-05-27T01:13:31.546Z,9.30
2018-05-27T01:15:27.524Z,9.20
2018-05-27T01:16:27.518Z,9.00
2018-05-27T01:18:23.505Z,9.20
2018-05-27T01:19:23.498Z,8.80
2018-05-27T01:21:19.945Z,9.20
2018-05-27T01:22:19.955Z,8.80
2018-05-27T01:24:15.359Z,9.00
2018-05-27T01:25:15.378Z,9.50
2018-05-27T01:27:11.366Z,10.60
2018-05-27T01:28:11.324Z,9.90
2018-05-27T01:30:06.285Z,9.30
2018-05-27T01:31:06.284Z,9.20
2018-05-27T01:33:01.735Z,9.90
2018-05-27T01:34:01.727Z,10.30
2018-05-27T01:35:58.196Z,9.70
2018-05-27T01:36:57.678Z,9.30
2018-05-27T01:38:53.653Z,9.20
2018-05-27T01:39:53.652Z,9.70
2018-05-27T01:41:49.626Z,10.00
2018-05-27T01:42:49.617Z,9.50
2018-05-27T01:44:45.561Z,10.30
2018-05-27T01:45:47.056Z,10.70
2018-05-27T01:47:42.030Z,9.00
2018-05-27T01:48:41.487Z,9.70
2018-05-27T01:50:37.437Z,9.40
2018-05-27T01:51:37.441Z,10.20
2018-05-27T01:53:33.451Z,9.80
2018-05-27T01:54:33.927Z,10.00
2018-05-27T01:56:29.854Z,9.40
2018-05-27T01:57:29.879Z,9.20
2018-05-27T01:59:25.814Z,10.50
2018-05-27T02:00:25.297Z,10.30
2018-05-27T02:02:21.274Z,9.20
2018-05-27T02:03:21.259Z,9.40
2018-05-27T02:05:18.756Z,9.30
2018-05-27T02:06:17.230Z,9.70
2018-05-27T02:08:13.163Z,9.30
2018-05-27T02:09:13.175Z,10.10
2018-05-27T02:11:09.097Z,9.60
2018-05-27T02:12:09.095Z,9.70
2018-05-27T02:14:11.074Z,9.70
2018-05-27T02:15:06.049Z,10.10
2018-05-27T02:17:01.064Z,9.90
2018-05-27T02:18:01.026Z,9.70
2018-05-27T02:19:59.507Z,10.00
2018-05-27T02:20:59.207Z,9.70
2018-05-27T02:22:55.126Z,10.00
2018-05-27T02:23:55.139Z,9.70
2018-05-27T02:25:53.649Z,10.00
2018-05-27T02:26:51.115Z,10.10
2018-05-27T02:28:47.048Z,9.80
2018-05-27T02:29:47.066Z,10.10
2018-05-27T02:31:43.071Z,10.00
2018-05-27T02:32:43.518Z,9.80
2018-05-27T02:34:39.977Z,9.90
2018-05-27T02:35:39.977Z,10.40
2018-05-27T02:37:34.993Z,10.20
2018-05-27T02:38:34.980Z,10.80
2018-05-27T02:40:30.954Z,10.10
2018-05-27T02:41:30.955Z,10.40
2018-05-27T02:43:26.933Z,10.80
2018-05-27T02:44:26.915Z,10.50
2018-05-27T02:46:23.392Z,10.70
2018-05-27T02:47:22.867Z,9.80
2018-05-27T02:49:18.819Z,9.60
2018-05-27T02:50:18.842Z,9.80
2018-05-27T02:52:14.811Z,10.00
2018-05-27T02:53:14.805Z,10.00
2018-05-27T02:55:10.815Z,9.90
2018-05-27T02:57:27.258Z,9.70
2018-05-27T02:58:26.728Z,10.20
2018-05-27T03:00:23.253Z,9.60
2018-05-27T03:01:23.623Z,10.00
2018-05-27T03:03:18.690Z,10.30
2018-05-27T03:04:18.655Z,10.80
2018-05-27T03:06:14.636Z,9.30
2018-05-27T03:07:14.616Z,10.10
2018-05-27T03:09:10.598Z,10.40
2018-05-27T03:10:10.587Z,9.80
2018-05-27T03:12:07.080Z,9.10
2018-05-27T03:14:26.545Z,9.90
2018-05-27T03:15:26.032Z,9.80
2018-05-27T03:17:20.007Z,9.40
2018-05-27T03:18:20.492Z,9.90
2018-05-27T03:20:15.974Z,9.60
2018-05-27T03:21:15.938Z,9.30
2018-05-27T03:23:11.926Z,9.90
2018-05-27T03:24:11.913Z,9.60
2018-05-27T03:26:07.880Z,9.40
2018-05-27T03:27:07.854Z,9.60
2018-05-27T03:29:04.333Z,9.70
2018-05-27T03:30:03.840Z,8.70
2018-05-27T03:31:59.853Z,9.90
2018-05-27T03:33:00.309Z,9.50
2018-05-27T03:34:55.732Z,9.60
2018-05-27T03:35:55.758Z,9.80
2018-05-27T03:37:51.730Z,9.60
2018-05-27T03:38:51.700Z,9.80
2018-05-27T03:40:48.184Z,10.00
2018-05-27T03:41:48.186Z,9.40
2018-05-27T03:43:43.615Z,9.90
2018-05-27T03:44:44.581Z,9.90
2018-05-27T03:46:41.539Z,10.20
2018-05-27T03:47:41.564Z,9.40
2018-05-27T03:49:40.077Z,9.60
2018-05-27T03:50:37.506Z,9.50
2018-05-27T03:52:33.973Z,9.20
2018-05-27T03:53:34.503Z,9.30
2018-05-27T03:55:31.937Z,10.00
2018-05-27T03:56:31.436Z,10.00
2018-05-27T03:58:28.388Z,9.80
2018-05-27T03:59:28.402Z,9.70
2018-05-27T04:01:23.338Z,9.90
2018-05-27T04:02:23.356Z,9.20
2018-05-27T04:04:19.308Z,9.10
2018-05-27T04:05:19.791Z,10.00
2018-05-27T04:07:15.255Z,9.60
2018-05-27T04:08:15.258Z,10.10
2018-05-27T04:10:11.191Z,9.40
2018-05-27T04:11:11.211Z,9.70
2018-05-27T04:13:07.157Z,9.20
2018-05-27T04:14:07.652Z,10.50
2018-05-27T04:16:03.145Z,9.70
2018-05-27T04:17:03.108Z,10.00
2018-05-27T04:18:59.570Z,9.60
2018-05-27T04:19:59.060Z,10.10
2018-05-27T04:21:55.033Z,9.40
2018-05-27T04:22:55.045Z,9.40
2018-05-27T04:24:54.074Z,9.70
2018-05-27T04:25:51.506Z,9.90
2018-05-27T04:27:46.970Z,9.70
2018-05-27T04:28:47.475Z,9.70
2018-05-27T04:30:42.948Z,9.70
2018-05-27T04:31:42.963Z,10.10
2018-05-27T04:33:38.945Z,9.60
2018-05-27T04:34:38.906Z,9.50
2018-05-27T04:36:36.439Z,9.90
2018-05-27T04:37:34.857Z,9.30
2018-05-27T04:39:33.323Z,9.40
2018-05-27T04:40:31.824Z,9.50
2018-05-27T04:42:28.791Z,9.60
2018-05-27T04:43:28.797Z,9.10
2018-05-27T04:45:24.735Z,9.20
2018-05-27T04:46:24.738Z,9.60
2018-05-27T04:48:20.716Z,9.90
2018-05-27T04:49:20.704Z,9.30
2018-05-27T04:51:16.622Z,9.60
2018-05-27T04:52:16.621Z,9.50
2018-05-27T04:54:16.625Z,9.30
2018-05-27T04:55:15.593Z,9.70
2018-05-27T04:57:13.218Z,9.60
2018-05-27T04:58:12.712Z,9.00
2018-05-27T05:00:08.677Z,9.10
2018-05-27T05:01:08.669Z,8.50
2018-05-27T05:03:05.150Z,8.90
2018-05-27T05:05:28.651Z,9.10
2018-05-27T05:06:20.599Z,9.40
2018-05-27T05:08:16.555Z,8.70
2018-05-27T05:09:16.577Z,9.00
2018-05-27T05:11:12.564Z,9.00
2018-05-27T05:12:14.059Z,8.90
2018-05-27T05:14:09.962Z,9.10
2018-05-27T05:15:08.471Z,8.40
2018-05-27T05:17:06.414Z,8.70
2018-05-27T05:18:06.407Z,9.40
2018-05-27T05:20:02.909Z,8.50
2018-05-27T05:21:02.407Z,8.80
2018-05-27T05:22:58.382Z,8.60
2018-05-27T05:23:58.857Z,8.50
2018-05-27T05:25:54.294Z,9.10
2018-05-27T05:26:54.302Z,8.80
2018-05-27T05:28:50.243Z,8.80
2018-05-27T05:29:51.195Z,8.70
2018-05-27T05:31:46.240Z,9.40
2018-05-27T05:32:46.177Z,8.70
2018-05-27T05:34:43.137Z,9.10
2018-05-27T05:35:42.143Z,8.60
2018-05-27T05:37:38.618Z,9.60
2018-05-27T05:38:38.638Z,9.00
2018-05-27T05:40:34.090Z,9.20
2018-05-27T05:41:34.068Z,9.00
2018-05-27T05:43:30.534Z,9.00
2018-05-27T05:44:30.544Z,9.00
2018-05-27T05:46:26.596Z,8.80
2018-05-27T05:47:26.028Z,9.10
2018-05-27T05:49:22.032Z,8.60
2018-05-27T05:50:21.983Z,8.60
2018-05-27T05:52:17.974Z,8.40
2018-05-27T05:53:18.452Z,8.50
2018-05-27T05:55:13.945Z,8.70
2018-05-27T05:56:13.910Z,8.00
2018-05-27T05:58:11.881Z,7.90
2018-05-27T05:59:11.890Z,8.00
2018-05-27T06:01:08.390Z,8.70
2018-05-27T06:02:07.797Z,8.10
2018-05-27T06:04:03.791Z,7.90
2018-05-27T06:05:03.775Z,8.10
2018-05-27T06:06:59.775Z,7.90
2018-05-27T06:07:59.762Z,8.30
2018-05-27T06:09:58.236Z,10.50
2018-05-27T06:10:57.901Z,8.70
2018-05-27T06:12:54.872Z,8.90
2018-05-27T06:13:54.367Z,8.30
2018-05-27T06:15:50.833Z,8.60
2018-05-27T06:16:49.871Z,8.70
2018-05-27T06:18:45.831Z,8.70
2018-05-27T06:19:45.830Z,8.00
2018-05-27T06:21:44.298Z,8.30
2018-05-27T06:22:43.781Z,8.10
2018-05-27T06:24:39.713Z,8.50
2018-05-27T06:25:39.725Z,8.70
2018-05-27T06:27:35.708Z,8.50
2018-05-27T06:28:36.203Z,9.00
2018-05-27T06:30:31.818Z,7.90
2018-05-27T06:31:31.837Z,8.40
2018-05-27T06:33:28.803Z,8.20
2018-05-27T06:34:28.812Z,8.20
2018-05-27T06:36:23.780Z,8.30
2018-05-27T06:37:23.777Z,8.00
2018-05-27T06:39:21.174Z,9.00
2018-05-27T06:40:19.741Z,8.00
2018-05-27T06:42:15.702Z,8.50
2018-05-27T06:43:16.718Z,9.10
2018-05-27T06:45:11.711Z,8.40
2018-05-27T06:46:12.710Z,7.90
2018-05-27T06:48:07.680Z,8.60
2018-05-27T06:49:08.176Z,7.80
2018-05-27T06:51:04.635Z,8.70
2018-05-27T06:52:03.590Z,8.70
2018-05-27T06:53:59.576Z,8.40
2018-05-27T06:54:59.551Z,7.80
2018-05-27T06:56:57.576Z,8.40
2018-05-27T06:57:57.512Z,8.50
2018-05-27T06:59:53.982Z,7.40
2018-05-27T07:00:54.971Z,8.00
2018-05-27T07:02:49.955Z,8.50
2018-05-27T07:03:49.458Z,8.20
2018-05-27T07:05:46.919Z,7.90
2018-05-27T07:06:46.415Z,7.60
2018-05-27T07:08:42.444Z,8.10
2018-05-27T07:09:42.378Z,8.10
2018-05-27T07:11:40.361Z,7.80
2018-05-27T07:12:40.299Z,8.70
2018-05-27T07:14:45.272Z,8.10
2018-05-27T07:15:37.193Z,8.50
2018-05-27T07:17:32.213Z,8.30
2018-05-27T07:18:33.741Z,8.20
2018-05-27T07:20:28.184Z,9.00
2018-05-27T07:21:28.193Z,8.10
2018-05-27T07:23:24.134Z,8.50
2018-05-27T07:24:24.155Z,8.50
2018-05-27T07:26:25.138Z,9.10
2018-05-27T07:27:20.107Z,8.80
2018-05-27T07:29:17.083Z,8.70
2018-05-27T07:30:16.092Z,8.30
2018-05-27T07:32:15.137Z,8.40
2018-05-27T07:33:14.143Z,8.20
2018-05-27T07:35:11.536Z,8.50
2018-05-27T07:36:11.041Z,8.80
2018-05-27T07:38:07.003Z,9.50
2018-05-27T07:40:27.464Z,8.60
2018-05-27T07:41:24.962Z,9.00
2018-05-27T07:43:21.944Z,8.10
2018-05-27T07:44:21.965Z,8.80
2018-05-27T07:46:19.854Z,8.50
2018-05-27T07:47:18.921Z,8.20
2018-05-27T07:49:13.867Z,7.70
2018-05-27T07:50:13.888Z,8.20
2018-05-27T07:52:12.865Z,7.90
2018-05-27T07:53:10.864Z,8.50
2018-05-27T07:55:05.865Z,8.80
2018-05-27T07:56:05.846Z,7.90
2018-05-27T07:58:03.320Z,7.80
2018-05-27T07:59:02.819Z,8.60
2018-05-27T08:00:58.303Z,8.20
2018-05-27T08:01:57.779Z,8.50
2018-05-27T08:03:54.226Z,8.40
2018-05-27T08:04:53.726Z,8.20
2018-05-27T08:06:49.696Z,8.90
2018-05-27T08:07:49.695Z,8.40
2018-05-27T08:09:45.652Z,8.80
2018-05-27T08:10:45.659Z,8.50
2018-05-27T08:12:42.625Z,8.80
2018-05-27T08:13:41.640Z,8.70
2018-05-27T08:15:37.627Z,8.70
2018-05-27T08:16:37.617Z,8.70
2018-05-27T08:18:33.582Z,8.80
2018-05-27T08:19:33.603Z,8.70
2018-05-27T08:21:29.561Z,8.50
2018-05-27T08:22:29.556Z,8.30
2018-05-27T08:24:25.517Z,8.00
2018-05-27T08:25:25.531Z,9.20
2018-05-27T08:27:22.491Z,8.30
2018-05-27T08:28:21.506Z,8.00
2018-05-27T08:30:18.473Z,8.30
2018-05-27T08:31:17.500Z,8.20
2018-05-27T08:33:13.520Z,8.50
2018-05-27T08:34:14.456Z,8.10
2018-05-27T08:36:09.941Z,8.20
2018-05-27T08:38:25.358Z,8.80
2018-05-27T08:39:25.894Z,8.30
2018-05-27T08:41:21.328Z,8.40
2018-05-27T08:42:21.854Z,8.40
2018-05-27T08:44:17.279Z,8.80
2018-05-27T08:45:17.280Z,8.30
2018-05-27T08:47:16.273Z,7.90
2018-05-27T08:48:16.264Z,7.90
2018-05-27T08:50:11.905Z,7.90
2018-05-27T08:51:11.416Z,7.50
2018-05-27T08:53:07.378Z,8.10
2018-05-27T08:54:07.876Z,7.90
2018-05-27T08:56:03.840Z,8.10
2018-05-27T08:57:03.361Z,7.90
2018-05-27T08:59:00.856Z,7.20
2018-05-27T09:00:00.325Z,7.40
2018-05-27T09:01:56.817Z,8.40
2018-05-27T09:02:55.334Z,8.00
2018-05-27T09:04:57.341Z,7.40
2018-05-27T09:05:55.812Z,7.60
2018-05-27T09:07:54.285Z,7.20
2018-05-27T09:08:53.801Z,7.30
2018-05-27T09:10:49.750Z,7.60
2018-05-27T09:11:50.304Z,8.20
2018-05-27T09:13:54.769Z,7.20
2018-05-27T09:14:55.240Z,7.00
2018-05-27T09:16:55.724Z,7.50
2018-05-27T09:17:55.200Z,7.30
2018-05-27T09:19:56.703Z,7.20
2018-05-27T09:20:55.172Z,7.10
2018-05-27T09:22:56.185Z,7.60
2018-05-27T09:23:56.641Z,7.40
2018-05-27T09:25:56.255Z,7.90
2018-05-27T09:26:56.152Z,7.30
2018-05-27T09:28:56.649Z,7.20
2018-05-27T09:29:56.646Z,7.50
2018-05-27T09:31:58.105Z,7.20
2018-05-27T09:32:57.419Z,6.70
2018-05-27T09:34:55.969Z,7.20
2018-05-27T09:35:56.310Z,7.00
2018-05-27T09:37:54.304Z,7.10
2018-05-27T09:38:55.317Z,7.00
2018-05-27T09:40:54.040Z,7.00
2018-05-27T09:41:53.872Z,7.70
2018-05-27T09:43:49.874Z,6.50
2018-05-27T09:44:50.002Z,6.50
2018-05-27T09:46:50.829Z,6.40
2018-05-27T09:47:50.322Z,7.00
2018-05-27T09:49:49.279Z,5.90
2018-05-27T09:50:48.490Z,6.40
2018-05-27T09:52:48.067Z,6.60
2018-05-27T09:53:47.533Z,6.70
2018-05-27T09:55:47.609Z,6.60
2018-05-27T09:56:47.254Z,6.40
2018-05-27T09:58:45.572Z,6.40
2018-05-27T09:59:45.076Z,7.10
2018-05-27T10:01:43.003Z,6.10
2018-05-27T10:02:43.481Z,6.30
2018-05-27T10:04:43.533Z,6.30
2018-05-27T10:05:45.009Z,6.30
2018-05-27T10:07:46.871Z,6.40
2018-05-27T10:08:45.068Z,6.70
2018-05-27T10:10:45.467Z,6.20
2018-05-27T10:11:45.700Z,6.80
2018-05-27T10:13:47.520Z,6.80
2018-05-27T10:14:47.202Z,6.60
2018-05-27T10:16:48.480Z,7.00
2018-05-27T10:17:46.513Z,6.70
2018-05-27T10:19:46.972Z,6.60
2018-05-27T10:20:47.139Z,7.50
2018-05-27T10:22:49.500Z,6.80
2018-05-27T10:23:48.913Z,6.50
2018-05-27T10:25:48.901Z,6.40
2018-05-27T10:26:49.488Z,6.90
2018-05-27T10:28:49.900Z,6.90
2018-05-27T10:29:50.869Z,6.30
2018-05-27T10:31:50.936Z,6.70
2018-05-27T10:32:53.356Z,6.30
2018-05-27T10:34:52.325Z,6.90
2018-05-27T10:35:53.394Z,6.30
2018-05-27T10:37:58.044Z,6.50
2018-05-27T10:38:55.363Z,6.40
2018-05-27T10:40:56.291Z,6.60
2018-05-27T10:41:55.817Z,6.10
2018-05-27T10:43:56.308Z,5.20
2018-05-27T10:44:56.434Z,5.80
2018-05-27T10:46:57.012Z,5.40
2018-05-27T10:47:56.848Z,5.90
2018-05-27T10:49:58.769Z,5.90
2018-05-27T10:50:59.313Z,5.30
2018-05-27T10:52:58.790Z,5.70
2018-05-27T10:53:58.676Z,6.00
2018-05-27T10:55:59.281Z,5.60
2018-05-27T10:57:01.263Z,5.60
2018-05-27T10:58:59.702Z,6.00
2018-05-27T11:00:00.688Z,6.50
2018-05-27T11:02:07.422Z,6.20
2018-05-27T11:03:00.177Z,5.90
2018-05-27T11:05:00.685Z,6.60
2018-05-27T11:06:01.572Z,6.50
2018-05-27T11:08:04.218Z,7.20
2018-05-27T11:09:01.174Z,6.70
2018-05-27T11:11:01.741Z,6.30
2018-05-27T11:12:02.538Z,6.90
2018-05-27T11:14:03.635Z,6.70
2018-05-27T11:15:02.275Z,7.60
2018-05-27T11:17:03.187Z,8.60
2018-05-27T11:18:02.757Z,8.40
2018-05-27T11:20:03.472Z,7.60
2018-05-27T11:21:03.743Z,6.90
2018-05-27T11:23:04.951Z,7.30
2018-05-27T11:24:05.790Z,7.50
2018-05-27T11:26:07.198Z,8.50
2018-05-27T11:27:06.369Z,7.60
2018-05-27T11:29:05.807Z,8.10
2018-05-27T11:30:06.788Z,7.90
2018-05-27T11:32:07.937Z,8.30
2018-05-27T11:33:06.226Z,8.00
2018-05-27T11:35:06.678Z,8.50
2018-05-27T11:36:06.674Z,8.60
2018-05-27T11:38:07.312Z,8.30
2018-05-27T11:39:08.129Z,9.30
2018-05-27T11:41:03.187Z,9.90
2018-05-27T11:42:03.651Z,9.70
2018-05-27T11:44:04.537Z,7.80
2018-05-27T11:45:03.633Z,8.60
2018-05-27T11:47:04.525Z,9.50
2018-05-27T11:48:04.081Z,8.90
2018-05-27T11:50:05.637Z,9.00
2018-05-27T11:51:05.524Z,8.70
2018-05-27T11:53:03.526Z,8.70
2018-05-27T11:54:03.487Z,8.80
2018-05-27T11:56:05.982Z,8.40
2018-05-27T11:57:04.007Z,8.00
2018-05-27T11:59:04.416Z,6.70
2018-05-27T12:00:04.506Z,7.10
2018-05-27T12:02:05.071Z,6.30
2018-05-27T12:03:06.915Z,7.90
2018-05-27T12:05:05.474Z,6.60
2018-05-27T12:06:05.395Z,6.70
2018-05-27T12:08:05.881Z,6.80
2018-05-27T12:09:06.906Z,6.00
2018-05-27T12:11:06.902Z,5.70
2018-05-27T12:12:06.884Z,4.90
2018-05-27T12:14:06.912Z,5.70
2018-05-27T12:15:07.801Z,5.50
2018-05-27T12:17:07.883Z,7.70
2018-05-27T12:18:07.262Z,5.60
2018-05-27T12:20:08.752Z,5.50
2018-05-27T12:21:07.794Z,7.00
2018-05-27T12:23:08.233Z,7.50
2018-05-27T12:24:08.291Z,8.80
2018-05-27T12:26:09.669Z,5.90
2018-05-27T12:27:09.672Z,6.50
2018-05-27T12:29:05.666Z,5.50
2018-05-27T12:30:05.671Z,6.60
2018-05-27T12:32:04.135Z,5.80
2018-05-27T12:33:03.590Z,6.40
2018-05-27T12:35:00.128Z,5.70
2018-05-27T12:35:59.582Z,5.70
2018-05-27T12:37:57.675Z,6.90
2018-05-27T12:38:57.530Z,11.70
2018-05-27T12:40:54.514Z,7.90
2018-05-27T12:41:55.006Z,9.70
2018-05-27T12:43:54.933Z,6.90
2018-05-27T12:44:54.927Z,7.90
2018-05-27T12:46:53.416Z,5.70
2018-05-27T12:47:52.898Z,6.10
2018-05-27T12:49:53.413Z,6.00
2018-05-27T12:50:53.393Z,7.00
2018-05-27T12:52:51.846Z,6.00
2018-05-27T12:53:51.883Z,6.60
2018-05-27T12:55:48.315Z,7.00
2018-05-27T12:56:47.321Z,7.00
2018-05-27T12:58:44.310Z,8.80
2018-05-27T12:59:44.276Z,6.70
2018-05-27T13:01:42.718Z,5.90
2018-05-27T13:02:42.734Z,5.20
2018-05-27T13:04:43.637Z,7.60
2018-05-27T13:05:42.694Z,7.10
2018-05-27T13:07:41.144Z,6.20
2018-05-27T13:08:40.611Z,6.30
2018-05-27T13:10:42.999Z,7.30
2018-05-27T13:11:42.132Z,7.30
2018-05-27T13:13:40.055Z,5.50
2018-05-27T13:14:40.124Z,6.20
2018-05-27T13:16:40.178Z,6.30
2018-05-27T13:17:39.616Z,5.90
2018-05-27T13:19:38.027Z,6.10
2018-05-27T13:20:37.650Z,7.50
2018-05-27T13:22:38.148Z,8.00
2018-05-27T13:23:38.128Z,5.60
2018-05-27T13:25:39.605Z,7.20
2018-05-27T13:26:38.641Z,6.50
2018-05-27T13:28:41.077Z,5.80
2018-05-27T13:29:40.073Z,7.20
2018-05-27T13:31:45.186Z,8.20
2018-05-27T13:32:41.075Z,5.10
2018-05-27T13:34:42.022Z,6.10
2018-05-27T13:35:42.105Z,6.20
2018-05-27T13:37:41.986Z,5.40
2018-05-27T13:38:41.489Z,5.50
2018-05-27T13:40:42.026Z,8.00
2018-05-27T13:41:41.962Z,7.50
2018-05-27T13:43:49.504Z,6.20
2018-05-27T13:44:42.403Z,6.30
2018-05-27T13:46:42.966Z,6.80
2018-05-27T13:47:43.011Z,8.30
2018-05-27T13:49:39.390Z,6.70
2018-05-27T13:50:38.837Z,5.10
2018-05-27T13:52:40.342Z,4.80
2018-05-27T13:53:40.453Z,5.60
2018-05-27T13:55:40.405Z,6.50
2018-05-27T13:56:42.799Z,4.70
2018-05-27T13:58:40.317Z,6.80
2018-05-27T13:59:40.285Z,4.90
2018-05-27T14:01:41.303Z,3.70
2018-05-27T14:02:40.735Z,6.90
2018-05-27T14:04:38.866Z,4.50
2018-05-27T14:05:38.986Z,3.60
2018-05-27T14:07:35.401Z,6.00
2018-05-27T14:08:34.851Z,7.60
2018-05-27T14:10:32.829Z,6.20
2018-05-27T14:11:34.822Z,3.50
2018-05-27T14:13:33.301Z,5.10
2018-05-27T14:14:33.320Z,4.40
2018-05-27T14:16:35.285Z,6.50
2018-05-27T14:17:35.275Z,3.70
2018-05-27T14:19:33.096Z,4.60
2018-05-27T14:20:33.526Z,5.20
2018-05-27T14:22:34.180Z,5.70
2018-05-27T14:23:34.933Z,4.10
2018-05-27T14:25:36.549Z,4.30
2018-05-27T14:26:35.504Z,5.20
2018-05-27T14:28:37.212Z,5.20
2018-05-27T14:29:40.998Z,5.00
2018-05-27T14:31:36.409Z,5.50
2018-05-27T14:32:36.417Z,4.00
2018-05-27T14:34:36.916Z,5.30
2018-05-27T14:35:37.423Z,4.40
2018-05-27T14:37:37.403Z,4.00
2018-05-27T14:38:37.383Z,4.60
2018-05-27T14:40:37.881Z,5.60
2018-05-27T14:41:38.843Z,6.00
2018-05-27T14:43:36.872Z,6.90
2018-05-27T14:44:36.851Z,4.70
2018-05-27T14:46:35.997Z,6.90
2018-05-27T14:47:33.977Z,8.40
2018-05-27T14:49:33.469Z,4.90
2018-05-27T14:50:32.148Z,5.30
2018-05-27T14:52:31.587Z,4.70
2018-05-27T14:53:29.019Z,8.10
2018-05-27T14:55:26.612Z,4.40
2018-05-27T14:56:26.292Z,5.00
2018-05-27T14:58:22.261Z,5.90
2018-05-27T14:59:22.277Z,5.40
2018-05-27T15:01:16.750Z,6.50
2018-05-27T15:02:16.699Z,5.00
2018-05-27T15:04:17.674Z,3.40
2018-05-27T15:05:20.189Z,7.00
2018-05-27T15:07:13.642Z,4.60
2018-05-27T15:08:13.630Z,5.00
2018-05-27T15:10:11.311Z,6.60
2018-05-27T15:11:12.095Z,5.20
2018-05-27T15:13:09.342Z,4.40
2018-05-27T15:14:09.306Z,6.30
2018-05-27T15:16:08.779Z,4.80
2018-05-27T15:17:07.315Z,6.20
2018-05-27T15:19:07.778Z,5.20
2018-05-27T15:20:07.750Z,3.80
2018-05-27T15:22:03.726Z,5.50
2018-05-27T15:24:24.273Z,3.60
2018-05-27T15:25:24.258Z,5.40
2018-05-27T15:27:21.723Z,5.00
2018-05-27T15:29:40.685Z,6.50
2018-05-27T15:30:39.375Z,4.70
2018-05-27T15:32:39.900Z,5.00
2018-05-27T15:33:37.829Z,4.50
2018-05-27T15:35:38.850Z,6.30
2018-05-27T15:36:37.813Z,5.00
2018-05-27T15:38:38.338Z,6.00
2018-05-27T15:39:38.289Z,5.40
2018-05-27T15:41:38.831Z,3.90
2018-05-27T15:42:38.741Z,3.60
2018-05-27T15:44:36.752Z,4.60
2018-05-27T15:45:37.215Z,7.00
2018-05-27T15:47:39.591Z,4.50
2018-05-27T15:48:37.147Z,5.50
2018-05-27T15:50:37.189Z,4.90
2018-05-27T15:51:37.115Z,4.60
2018-05-27T15:53:36.798Z,4.90
2018-05-27T15:54:37.780Z,4.90
2018-05-27T15:56:32.806Z,6.60
2018-05-27T15:57:31.817Z,6.30
2018-05-27T15:59:31.844Z,6.30
2018-05-27T16:00:29.831Z,7.50
2018-05-27T16:02:29.818Z,4.40
2018-05-27T16:03:29.279Z,6.60
2018-05-27T16:05:25.315Z,5.70
2018-05-27T16:06:25.775Z,4.90
2018-05-27T16:08:21.189Z,5.70
2018-05-27T16:09:21.719Z,6.10
2018-05-27T16:11:17.230Z,5.70
2018-05-27T16:12:17.137Z,7.10
2018-05-27T16:14:13.084Z,6.40
2018-05-27T16:15:13.103Z,7.80
2018-05-27T16:17:09.050Z,5.00
2018-05-27T16:18:09.058Z,8.30
2018-05-27T16:20:08.025Z,6.90
2018-05-27T16:21:07.051Z,6.40
2018-05-27T16:23:06.003Z,6.70
2018-05-27T16:24:05.228Z,5.80
2018-05-27T16:26:03.207Z,8.10
2018-05-27T16:27:03.176Z,7.30
2018-05-27T16:28:59.128Z,5.30
2018-05-27T16:29:59.146Z,5.10
2018-05-27T16:31:56.193Z,9.80
2018-05-27T16:32:55.631Z,6.30
2018-05-27T16:34:51.047Z,6.60
2018-05-27T16:35:52.595Z,8.00
2018-05-27T16:37:47.055Z,7.50
2018-05-27T16:38:47.528Z,7.50
2018-05-27T16:40:45.262Z,5.80
2018-05-27T16:41:47.000Z,5.70
2018-05-27T16:43:43.182Z,7.50
2018-05-27T16:44:43.191Z,4.70
2018-05-27T16:46:47.168Z,7.50
2018-05-27T16:47:41.154Z,7.20
2018-05-27T16:49:37.153Z,7.60
2018-05-27T16:50:37.629Z,6.30
2018-05-27T16:52:33.163Z,6.20
2018-05-27T16:53:33.120Z,8.00
2018-05-27T16:55:29.605Z,7.80
2018-05-27T16:56:30.593Z,8.40
2018-05-27T16:58:28.050Z,6.60
2018-05-27T16:59:27.084Z,7.30
2018-05-27T17:01:26.071Z,6.00
2018-05-27T17:02:26.025Z,5.80
2018-05-27T17:04:23.167Z,9.30
2018-05-27T17:05:22.198Z,7.10
2018-05-27T17:07:21.658Z,6.10
2018-05-27T17:08:20.321Z,5.60
2018-05-27T17:10:17.795Z,6.90
2018-05-27T17:11:16.319Z,5.90
2018-05-27T17:13:12.279Z,7.30
2018-05-27T17:14:12.322Z,6.60
2018-05-27T17:16:08.224Z,8.70
2018-05-27T17:17:09.739Z,6.20
2018-05-27T17:19:04.191Z,6.90
2018-05-27T17:20:05.712Z,6.50
2018-05-27T17:22:11.663Z,6.60
2018-05-27T17:24:27.636Z,10.40
2018-05-27T17:26:43.608Z,8.40
2018-05-27T17:27:44.610Z,7.20
2018-05-27T17:29:39.166Z,7.70
2018-05-27T17:30:39.097Z,7.60
2018-05-27T17:32:36.065Z,7.90
2018-05-27T17:33:36.061Z,8.10
2018-05-27T17:35:32.597Z,7.70
2018-05-27T17:36:31.064Z,7.70
2018-05-27T17:38:27.021Z,8.90
2018-05-27T17:39:27.059Z,7.70
2018-05-27T17:41:23.499Z,8.30
2018-05-27T17:42:22.975Z,8.70
2018-05-27T17:44:21.463Z,8.00
2018-05-27T17:45:21.129Z,7.70
2018-05-27T17:47:20.674Z,8.40
2018-05-27T17:48:20.108Z,8.10
2018-05-27T17:50:16.288Z,7.80
2018-05-27T17:51:15.280Z,7.70
2018-05-27T17:53:11.233Z,8.00
2018-05-27T17:54:11.249Z,8.80
2018-05-27T17:56:07.721Z,10.10
2018-05-27T17:57:07.211Z,8.50
2018-05-27T17:59:03.187Z,7.70
2018-05-27T18:00:03.651Z,7.70
2018-05-27T18:01:59.607Z,8.10
2018-05-27T18:02:59.122Z,8.60
2018-05-27T18:04:55.451Z,7.80
2018-05-27T18:05:56.082Z,7.70
2018-05-27T18:07:51.449Z,7.40
2018-05-27T18:10:07.427Z,7.90
2018-05-27T18:11:07.417Z,8.00
2018-05-27T18:13:03.556Z,8.50
2018-05-27T18:14:04.387Z,8.40
2018-05-27T18:16:00.545Z,10.30
2018-05-27T18:16:59.538Z,8.40
2018-05-27T18:18:57.492Z,9.00
2018-05-27T18:19:57.505Z,8.30
2018-05-27T18:21:53.987Z,8.90
2018-05-27T18:22:53.474Z,9.40
2018-05-27T18:24:49.422Z,9.10
2018-05-27T18:25:49.432Z,9.70
2018-05-27T18:27:46.328Z,9.30
2018-05-27T18:28:45.386Z,9.50
2018-05-27T18:30:41.392Z,9.80
2018-05-27T18:31:41.375Z,9.80
2018-05-27T18:33:37.366Z,11.20
2018-05-27T18:34:37.344Z,10.50
2018-05-27T18:36:34.311Z,10.40
2018-05-27T18:37:33.295Z,10.60
2018-05-27T18:39:29.774Z,11.40
2018-05-27T18:40:29.266Z,11.00
2018-05-27T18:42:25.236Z,10.60
2018-05-27T18:44:41.188Z,10.20
2018-05-27T18:45:41.190Z,10.50
2018-05-27T18:47:37.657Z,10.60
2018-05-27T18:48:37.646Z,10.40
2018-05-27T18:50:33.128Z,9.40
2018-05-27T18:51:33.119Z,9.80
2018-05-27T18:53:29.139Z,8.80
2018-05-27T18:54:29.102Z,9.70
2018-05-27T18:56:25.090Z,8.50
2018-05-27T18:57:26.045Z,8.90
2018-05-27T18:59:23.187Z,8.70
2018-05-27T19:00:23.260Z,8.10
2018-05-27T19:02:22.197Z,7.70
2018-05-27T19:03:23.105Z,9.00
2018-05-27T19:05:20.164Z,8.00
2018-05-27T19:06:19.140Z,8.60
2018-05-27T19:08:15.222Z,9.10
2018-05-27T19:09:15.232Z,9.30
2018-05-27T19:11:11.706Z,9.30
2018-05-27T19:12:11.151Z,7.30
2018-05-27T19:14:07.659Z,6.00
2018-05-27T19:15:07.187Z,5.40
2018-05-27T19:17:06.150Z,7.00
2018-05-27T19:18:06.090Z,6.60
2018-05-27T19:20:01.762Z,6.10
2018-05-27T19:21:01.225Z,5.70
2018-05-27T19:22:58.169Z,8.50
2018-05-27T19:25:13.125Z,6.90
2018-05-27T19:26:13.200Z,6.90
2018-05-27T19:28:10.230Z,5.70
2018-05-27T19:29:10.192Z,6.90
2018-05-27T19:31:05.040Z,5.20
2018-05-27T19:32:06.602Z,6.20
2018-05-27T19:34:02.012Z,4.90
2018-05-27T19:35:00.997Z,7.30
2018-05-27T19:36:58.952Z,6.30
2018-05-27T19:37:58.033Z,6.00
2018-05-27T19:39:53.503Z,8.60
2018-05-27T19:40:53.981Z,5.10
2018-05-27T19:42:50.986Z,5.00
2018-05-27T19:43:51.008Z,6.90
2018-05-27T19:45:49.932Z,6.70
2018-05-27T19:46:47.425Z,7.40